Omskiy-141 — UGZK — position and weather

sailwx.info

Track history (hours):
 
Tides and Currents Weather Stations Pressure Air Temp Water Temp Dewpoint Dewpoint Depression Visibility Wind Speed Wind Dir Waves Ship Positions

Omskiy-141

Last reported at 2018-Mar-11 01:05 UTC. Time now 2018-Apr-19 10:19 UTC.
Position N 54°39' E 019°48'.
Warning: this ship's position is 39 days out of date.

Length 108 m; draft 2.6 m.

Type: Cargo ship. MMSI: 273310600.

Date/timePositionNaut miles runAvg speedWind from/ knotsBaromVisibWave heightAir tempDewpointWater temp
2018-Mar-11 01:05N 54°39' E 019°48'0 0.5
2018-Mar-11 00:56N 54°39' E 019°49'0 0.0
2018-Mar-10 21:27N 54°39' E 019°48'0 0.0
2018-Mar-10 21:00N 54°39' E 019°48'0 0.0
2018-Mar-10 20:21N 54°39' E 019°48'0 0.0
2018-Mar-10 17:51N 54°39' E 019°48'1 1.8
2018-Mar-10 17:21N 54°40' E 019°47'4 7.9
2018-Mar-10 16:54N 54°42' E 019°42'3 8.3
2018-Mar-10 16:30N 54°44' E 019°38'4 8.3
2018-Mar-10 16:00N 54°48' E 019°34'17 8.2
2018-Mar-10 13:56N 55°03' E 019°21'9 8.1
2018-Mar-10 12:47N 55°12' E 019°15'3 8.1
2018-Mar-10 12:24N 55°14' E 019°12'146 7.0
2018-Mar-09 15:37N 57°15' E 016°44'1 8.6
2018-Mar-09 15:30N 57°14' E 016°43'5 8.7
2018-Mar-09 14:58N 57°11' E 016°37'4 7.9
2018-Mar-09 14:28N 57°07' E 016°33'  
2018-Mar-06 13:55N 56°02' E 018°18'52 8.6
2018-Mar-06 07:53N 55°54' E 016°46'4 8.3
2018-Mar-06 07:27N 55°54' E 016°40'4 8.2
2018-Mar-06 06:55N 55°54' E 016°32'3 8.1
2018-Mar-06 06:30N 55°54' E 016°26'4 8.1
2018-Mar-06 06:00N 55°54' E 016°19'4 8.0
2018-Mar-06 05:29N 55°54' E 016°11'4 8.0
2018-Mar-06 05:00N 55°54' E 016°05'4 8.1
2018-Mar-06 04:30N 55°54' E 015°57'4 8.1
2018-Mar-06 04:00N 55°54' E 015°50'4 8.0
2018-Mar-06 03:30N 55°55' E 015°43'4 8.0
2018-Mar-06 03:00N 55°56' E 015°36'4 8.1
2018-Mar-06 02:30N 55°57' E 015°30'4 8.2
2018-Mar-06 02:00N 55°59' E 015°23'4 8.2
2018-Mar-06 01:30N 56°00' E 015°16'4 8.2
2018-Mar-06 01:00N 56°02' E 015°09'4 8.4
2018-Mar-06 00:30N 56°04' E 015°02'4 8.3
2018-Mar-06 00:00N 56°05' E 014°55'4 8.1
2018-Mar-05 23:30N 56°07' E 014°49'  
2018-Mar-03 06:23N 56°10' E 014°49'2 5.1
2018-Mar-03 06:00N 56°08' E 014°49'3 5.8
2018-Mar-03 05:30N 56°06' E 014°53'2 4.6
2018-Mar-03 05:00N 56°05' E 014°57'2 5.0
2018-Mar-03 04:30N 56°04' E 015°01'3 5.2
2018-Mar-03 04:00N 56°03' E 015°05'2 3.9
2018-Mar-03 03:30N 56°02' E 015°08'2 3.3
2018-Mar-03 03:00N 56°01' E 015°11'2 3.4
2018-Mar-03 02:30N 56°01' E 015°14'2 3.3
2018-Mar-03 02:01N 55°60' E 015°17'2 3.5
2018-Mar-03 01:30N 55°59' E 015°19'2 3.4
2018-Mar-03 01:00N 55°59' E 015°22'2 3.4
2018-Mar-03 00:30N 55°58' E 015°25'2 3.4
2018-Mar-03 00:00N 55°58' E 015°28'2 3.7
2018-Mar-02 23:30N 55°57' E 015°31'2 3.8
2018-Mar-02 23:00N 55°56' E 015°34'2 3.9
2018-Mar-02 22:30N 55°55' E 015°37'2 3.7
2018-Mar-02 22:00N 55°55' E 015°41'2 3.9
2018-Mar-02 21:30N 55°55' E 015°44'3 5.7
2018-Mar-02 21:00N 55°56' E 015°49'4 8.1
2018-Mar-02 20:30N 55°57' E 015°55'4 8.0
2018-Mar-02 20:00N 55°59' E 016°02'4 8.0
2018-Mar-02 19:30N 56°00' E 016°09'4 8.0
2018-Mar-02 19:00N 56°02' E 016°15'4 8.0
2018-Mar-02 18:30N 56°03' E 016°22'4 8.1
2018-Mar-02 18:00N 56°04' E 016°29'4 8.5
2018-Mar-02 17:30N 56°06' E 016°36'4 8.6
2018-Mar-02 17:00N 56°08' E 016°42'  
Track history (hours):
 
Tides and Currents Weather Stations Pressure Air Temp Water Temp Dewpoint Dewpoint Depression Visibility Wind Speed Wind Dir Waves Ship Positions

Omskiy-141

Last reported at 2018-Mar-11 01:05 UTC. Time now 2018-Apr-19 10:19 UTC.
Position N 54°39' E 019°48'.
Warning: this ship's position is 39 days out of date.

Length 108 m; draft 2.6 m.

Type: Cargo ship. MMSI: 273310600.

Date/timePositionNaut miles runAvg speedWind from/ knotsBaromVisibWave heightAir tempDewpointWater temp
2018-Mar-11 01:05N 54°39' E 019°48'0 0.5
2018-Mar-11 00:56N 54°39' E 019°49'0 0.0
2018-Mar-10 21:27N 54°39' E 019°48'0 0.0
2018-Mar-10 21:00N 54°39' E 019°48'0 0.0
2018-Mar-10 20:21N 54°39' E 019°48'0 0.0
2018-Mar-10 17:51N 54°39' E 019°48'1 1.8
2018-Mar-10 17:21N 54°40' E 019°47'4 7.9
2018-Mar-10 16:54N 54°42' E 019°42'3 8.3
2018-Mar-10 16:30N 54°44' E 019°38'4 8.3
2018-Mar-10 16:00N 54°48' E 019°34'17 8.2
2018-Mar-10 13:56N 55°03' E 019°21'9 8.1
2018-Mar-10 12:47N 55°12' E 019°15'3 8.1
2018-Mar-10 12:24N 55°14' E 019°12'146 7.0
2018-Mar-09 15:37N 57°15' E 016°44'1 8.6
2018-Mar-09 15:30N 57°14' E 016°43'5 8.7
2018-Mar-09 14:58N 57°11' E 016°37'4 7.9
2018-Mar-09 14:28N 57°07' E 016°33'  
2018-Mar-06 13:55N 56°02' E 018°18'52 8.6
2018-Mar-06 07:53N 55°54' E 016°46'4 8.3
2018-Mar-06 07:27N 55°54' E 016°40'4 8.2
2018-Mar-06 06:55N 55°54' E 016°32'3 8.1
2018-Mar-06 06:30N 55°54' E 016°26'4 8.1
2018-Mar-06 06:00N 55°54' E 016°19'4 8.0
2018-Mar-06 05:29N 55°54' E 016°11'4 8.0
2018-Mar-06 05:00N 55°54' E 016°05'4 8.1
2018-Mar-06 04:30N 55°54' E 015°57'4 8.1
2018-Mar-06 04:00N 55°54' E 015°50'4 8.0
2018-Mar-06 03:30N 55°55' E 015°43'4 8.0
2018-Mar-06 03:00N 55°56' E 015°36'4 8.1
2018-Mar-06 02:30N 55°57' E 015°30'4 8.2
2018-Mar-06 02:00N 55°59' E 015°23'4 8.2
2018-Mar-06 01:30N 56°00' E 015°16'4 8.2
2018-Mar-06 01:00N 56°02' E 015°09'4 8.4
2018-Mar-06 00:30N 56°04' E 015°02'4 8.3
2018-Mar-06 00:00N 56°05' E 014°55'4 8.1
2018-Mar-05 23:30N 56°07' E 014°49'  
2018-Mar-03 06:23N 56°10' E 014°49'2 5.1
2018-Mar-03 06:00N 56°08' E 014°49'3 5.8
2018-Mar-03 05:30N 56°06' E 014°53'2 4.6
2018-Mar-03 05:00N 56°05' E 014°57'2 5.0
2018-Mar-03 04:30N 56°04' E 015°01'3 5.2
2018-Mar-03 04:00N 56°03' E 015°05'2 3.9
2018-Mar-03 03:30N 56°02' E 015°08'2 3.3
2018-Mar-03 03:00N 56°01' E 015°11'2 3.4
2018-Mar-03 02:30N 56°01' E 015°14'2 3.3
2018-Mar-03 02:01N 55°60' E 015°17'2 3.5
2018-Mar-03 01:30N 55°59' E 015°19'2 3.4
2018-Mar-03 01:00N 55°59' E 015°22'2 3.4
2018-Mar-03 00:30N 55°58' E 015°25'2 3.4
2018-Mar-03 00:00N 55°58' E 015°28'2 3.7
2018-Mar-02 23:30N 55°57' E 015°31'2 3.8
2018-Mar-02 23:00N 55°56' E 015°34'2 3.9
2018-Mar-02 22:30N 55°55' E 015°37'2 3.7
2018-Mar-02 22:00N 55°55' E 015°41'2 3.9
2018-Mar-02 21:30N 55°55' E 015°44'3 5.7
2018-Mar-02 21:00N 55°56' E 015°49'4 8.1
2018-Mar-02 20:30N 55°57' E 015°55'4 8.0
2018-Mar-02 20:00N 55°59' E 016°02'4 8.0
2018-Mar-02 19:30N 56°00' E 016°09'4 8.0
2018-Mar-02 19:00N 56°02' E 016°15'4 8.0
2018-Mar-02 18:30N 56°03' E 016°22'4 8.1
2018-Mar-02 18:00N 56°04' E 016°29'4 8.5
2018-Mar-02 17:30N 56°06' E 016°36'4 8.6
2018-Mar-02 17:00N 56°08' E 016°42'  

Dump ship's entire track history